Nashwauk, Minnesota
Current Conditions -  °F | °C
As of 8:53 PM on Friday 21 Nov 2014 (Local Time) from KHIB Reporting Station
Clear Clear  
Wind Chill: 20°   Ceiling: Unl
Heat Index: 29°   Visibility: 10mi
Dew Point: 20°   Wind: 9mph
Humidity: 69%   Direction: 200°SSW
Pressure: 29.7"   Gusts: 21mph
Location:  47.38°N, 93.17°W
Report Text: KHIB 220253Z AUTO 20008G18KT 10SM CLR M02/M07 A2970 RMK AO2 SLP081 T10171067 58027
Loading
Personal Weather Stations






























Interactive Weather Map New forecast layout! Learn more

10-Day Weather Forecast

Advertisements
Track Severe Weather on mobile